sensor_id;sensor_type;location;lat;lon;timestamp;temperature;humidity
45843;DHT22;31563;51.744;8.252;2022-09-12T00:01:05;23.80;53.50
45843;DHT22;31563;51.744;8.252;2022-09-12T00:03:34;23.80;53.50
45843;DHT22;31563;51.744;8.252;2022-09-12T00:06:08;23.80;53.50
45843;DHT22;31563;51.744;8.252;2022-09-12T00:08:36;23.80;53.50
45843;DHT22;31563;51.744;8.252;2022-09-12T00:11:08;23.70;53.50
45843;DHT22;31563;51.744;8.252;2022-09-12T00:13:37;23.70;53.60
45843;DHT22;31563;51.744;8.252;2022-09-12T00:16:14;23.60;53.60
45843;DHT22;31563;51.744;8.252;2022-09-12T00:18:43;23.60;53.60
45843;DHT22;31563;51.744;8.252;2022-09-12T00:21:13;23.60;53.70
45843;DHT22;31563;51.744;8.252;2022-09-12T00:23:42;23.60;53.80
45843;DHT22;31563;51.744;8.252;2022-09-12T00:26:12;23.60;53.80
45843;DHT22;31563;51.744;8.252;2022-09-12T00:28:41;23.60;53.80
45843;DHT22;31563;51.744;8.252;2022-09-12T00:31:10;23.60;53.50
45843;DHT22;31563;51.744;8.252;2022-09-12T00:33:39;23.60;54.30
45843;DHT22;31563;51.744;8.252;2022-09-12T00:36:10;23.50;53.80
45843;DHT22;31563;51.744;8.252;2022-09-12T00:38:40;23.50;53.90
45843;DHT22;31563;51.744;8.252;2022-09-12T00:41:14;23.50;54.00
45843;DHT22;31563;51.744;8.252;2022-09-12T00:43:45;23.50;54.00
45843;DHT22;31563;51.744;8.252;2022-09-12T00:46:24;23.50;54.00
45843;DHT22;31563;51.744;8.252;2022-09-12T00:48:57;23.50;54.10
45843;DHT22;31563;51.744;8.252;2022-09-12T00:51:28;23.40;54.10
45843;DHT22;31563;51.744;8.252;2022-09-12T00:54:03;23.40;54.10
45843;DHT22;31563;51.744;8.252;2022-09-12T00:56:34;23.40;54.10
45843;DHT22;31563;51.744;8.252;2022-09-12T00:59:06;23.30;54.20
45843;DHT22;31563;51.744;8.252;2022-09-12T01:01:36;23.40;54.30
45843;DHT22;31563;51.744;8.252;2022-09-12T01:04:05;23.30;54.20
45843;DHT22;31563;51.744;8.252;2022-09-12T01:06:36;23.30;54.30
45843;DHT22;31563;51.744;8.252;2022-09-12T01:09:07;23.30;54.20
45843;DHT22;31563;51.744;8.252;2022-09-12T01:11:39;23.20;54.30
45843;DHT22;31563;51.744;8.252;2022-09-12T01:14:08;23.30;54.40
45843;DHT22;31563;51.744;8.252;2022-09-12T01:16:36;23.20;54.40
45843;DHT22;31563;51.744;8.252;2022-09-12T01:19:19;23.20;54.40
45843;DHT22;31563;51.744;8.252;2022-09-12T01:22:02;23.20;54.40
45843;DHT22;31563;51.744;8.252;2022-09-12T01:24:51;23.20;54.50
45843;DHT22;31563;51.744;8.252;2022-09-12T01:27:43;23.20;54.50
45843;DHT22;31563;51.744;8.252;2022-09-12T01:30:43;23.10;54.50
45843;DHT22;31563;51.744;8.252;2022-09-12T01:33:34;23.10;54.50
45843;DHT22;31563;51.744;8.252;2022-09-12T01:36:22;23.10;54.60
45843;DHT22;31563;51.744;8.252;2022-09-12T01:38:58;23.10;54.70
45843;DHT22;31563;51.744;8.252;2022-09-12T01:41:31;23.00;54.70
45843;DHT22;31563;51.744;8.252;2022-09-12T01:44:11;23.00;54.70
45843;DHT22;31563;51.744;8.252;2022-09-12T01:46:47;23.00;54.80
45843;DHT22;31563;51.744;8.252;2022-09-12T01:49:21;23.00;54.80
45843;DHT22;31563;51.744;8.252;2022-09-12T01:51:55;22.90;54.80
45843;DHT22;31563;51.744;8.252;2022-09-12T01:54:28;22.90;54.80
45843;DHT22;31563;51.744;8.252;2022-09-12T01:57:02;22.90;54.80
45843;DHT22;31563;51.744;8.252;2022-09-12T01:59:36;22.90;54.80
45843;DHT22;31563;51.744;8.252;2022-09-12T02:02:10;22.90;54.90
45843;DHT22;31563;51.744;8.252;2022-09-12T02:04:44;22.90;54.90
45843;DHT22;31563;51.744;8.252;2022-09-12T02:07:19;22.80;54.90
45843;DHT22;31563;51.744;8.252;2022-09-12T02:09:51;22.90;55.00
45843;DHT22;31563;51.744;8.252;2022-09-12T02:12:24;22.80;55.00
45843;DHT22;31563;51.744;8.252;2022-09-12T02:14:57;22.80;55.00
45843;DHT22;31563;51.744;8.252;2022-09-12T02:17:34;22.80;55.00
45843;DHT22;31563;51.744;8.252;2022-09-12T02:20:07;22.80;55.00
45843;DHT22;31563;51.744;8.252;2022-09-12T02:22:57;22.80;55.00
45843;DHT22;31563;51.744;8.252;2022-09-12T02:25:28;22.80;55.00
45843;DHT22;31563;51.744;8.252;2022-09-12T02:27:58;22.70;55.00
45843;DHT22;31563;51.744;8.252;2022-09-12T02:30:30;22.70;55.00
45843;DHT22;31563;51.744;8.252;2022-09-12T02:33:06;22.70;55.10
45843;DHT22;31563;51.744;8.252;2022-09-12T02:35:43;22.70;55.00
45843;DHT22;31563;51.744;8.252;2022-09-12T02:38:18;22.70;55.10
45843;DHT22;31563;51.744;8.252;2022-09-12T02:40:47;22.70;55.20
45843;DHT22;31563;51.744;8.252;2022-09-12T02:43:15;22.60;55.20
45843;DHT22;31563;51.744;8.252;2022-09-12T02:45:43;22.60;55.20
45843;DHT22;31563;51.744;8.252;2022-09-12T02:48:17;22.60;55.40
45843;DHT22;31563;51.744;8.252;2022-09-12T02:50:47;22.60;55.20
45843;DHT22;31563;51.744;8.252;2022-09-12T02:53:15;22.50;55.20
45843;DHT22;31563;51.744;8.252;2022-09-12T02:55:44;22.50;55.30
45843;DHT22;31563;51.744;8.252;2022-09-12T02:58:16;22.50;55.30
45843;DHT22;31563;51.744;8.252;2022-09-12T03:00:47;22.50;55.70
45843;DHT22;31563;51.744;8.252;2022-09-12T03:03:36;22.60;54.90
45843;DHT22;31563;51.744;8.252;2022-09-12T03:06:16;22.60;55.50
45843;DHT22;31563;51.744;8.252;2022-09-12T03:09:05;22.60;55.60
45843;DHT22;31563;51.744;8.252;2022-09-12T03:11:50;22.60;55.60
45843;DHT22;31563;51.744;8.252;2022-09-12T03:14:34;22.50;55.70
45843;DHT22;31563;51.744;8.252;2022-09-12T03:17:16;22.50;55.80
45843;DHT22;31563;51.744;8.252;2022-09-12T03:19:56;22.50;55.90
45843;DHT22;31563;51.744;8.252;2022-09-12T03:22:29;22.40;55.90
45843;DHT22;31563;51.744;8.252;2022-09-12T03:25:04;22.40;55.80
45843;DHT22;31563;51.744;8.252;2022-09-12T03:27:35;22.40;55.90
45843;DHT22;31563;51.744;8.252;2022-09-12T03:30:06;22.40;55.90
45843;DHT22;31563;51.744;8.252;2022-09-12T03:32:40;22.30;55.80
45843;DHT22;31563;51.744;8.252;2022-09-12T03:35:11;22.30;55.90
45843;DHT22;31563;51.744;8.252;2022-09-12T03:37:40;22.30;55.90
45843;DHT22;31563;51.744;8.252;2022-09-12T03:40:09;22.30;55.90
45843;DHT22;31563;51.744;8.252;2022-09-12T03:42:38;22.20;55.90
45843;DHT22;31563;51.744;8.252;2022-09-12T03:45:07;22.20;55.90
45843;DHT22;31563;51.744;8.252;2022-09-12T03:47:36;22.20;55.90
45843;DHT22;31563;51.744;8.252;2022-09-12T03:50:05;22.20;56.00
45843;DHT22;31563;51.744;8.252;2022-09-12T03:52:35;22.10;56.00
45843;DHT22;31563;51.744;8.252;2022-09-12T03:55:04;22.10;56.00
45843;DHT22;31563;51.744;8.252;2022-09-12T03:57:32;22.10;56.00
45843;DHT22;31563;51.744;8.252;2022-09-12T04:00:01;22.10;56.10
45843;DHT22;31563;51.744;8.252;2022-09-12T04:02:29;22.00;56.00
45843;DHT22;31563;51.744;8.252;2022-09-12T04:04:57;22.10;56.10
45843;DHT22;31563;51.744;8.252;2022-09-12T04:07:25;22.10;55.60
45843;DHT22;31563;51.744;8.252;2022-09-12T04:09:55;22.00;67.60
45843;DHT22;31563;51.744;8.252;2022-09-12T04:12:23;22.00;56.00
45843;DHT22;31563;51.744;8.252;2022-09-12T04:14:51;22.10;56.00
45843;DHT22;31563;51.744;8.252;2022-09-12T04:17:19;22.00;56.00
45843;DHT22;31563;51.744;8.252;2022-09-12T04:19:47;22.00;56.10
45843;DHT22;31563;51.744;8.252;2022-09-12T04:22:15;22.00;56.00
45843;DHT22;31563;51.744;8.252;2022-09-12T04:24:43;22.00;56.10
45843;DHT22;31563;51.744;8.252;2022-09-12T04:27:13;22.00;56.70
45843;DHT22;31563;51.744;8.252;2022-09-12T04:29:41;21.90;56.00
45843;DHT22;31563;51.744;8.252;2022-09-12T04:32:09;21.90;56.00
45843;DHT22;31563;51.744;8.252;2022-09-12T04:34:37;21.90;56.00
45843;DHT22;31563;51.744;8.252;2022-09-12T04:37:06;21.80;56.00
45843;DHT22;31563;51.744;8.252;2022-09-12T04:39:34;21.80;56.00
45843;DHT22;31563;51.744;8.252;2022-09-12T04:42:02;21.90;56.10
45843;DHT22;31563;51.744;8.252;2022-09-12T04:44:32;21.80;56.30
45843;DHT22;31563;51.744;8.252;2022-09-12T04:47:00;21.80;56.00
45843;DHT22;31563;51.744;8.252;2022-09-12T04:49:29;21.80;56.10
45843;DHT22;31563;51.744;8.252;2022-09-12T04:51:57;21.80;56.10
45843;DHT22;31563;51.744;8.252;2022-09-12T04:54:25;21.80;56.00
45843;DHT22;31563;51.744;8.252;2022-09-12T04:56:53;21.80;56.00
45843;DHT22;31563;51.744;8.252;2022-09-12T04:59:22;21.80;56.00
45843;DHT22;31563;51.744;8.252;2022-09-12T05:01:51;21.80;55.60
45843;DHT22;31563;51.744;8.252;2022-09-12T05:04:20;22.20;65.10
45843;DHT22;31563;51.744;8.252;2022-09-12T05:06:48;21.70;55.40
45843;DHT22;31563;51.744;8.252;2022-09-12T05:09:16;21.70;55.80
45843;DHT22;31563;51.744;8.252;2022-09-12T05:11:45;22.30;68.20
45843;DHT22;31563;51.744;8.252;2022-09-12T05:14:30;21.80;55.50
45843;DHT22;31563;51.744;8.252;2022-09-12T05:17:00;21.70;55.90
45843;DHT22;31563;51.744;8.252;2022-09-12T05:19:30;21.80;56.10
45843;DHT22;31563;51.744;8.252;2022-09-12T05:21:59;21.80;56.20
45843;DHT22;31563;51.744;8.252;2022-09-12T05:24:27;21.80;56.10
45843;DHT22;31563;51.744;8.252;2022-09-12T06:19:13;23.10;69.20
45843;DHT22;31563;51.744;8.252;2022-09-12T06:34:09;22.60;77.10
45843;DHT22;31563;51.744;8.252;2022-09-12T06:36:38;23.10;81.30
45843;DHT22;31563;51.744;8.252;2022-09-12T06:54:11;23.00;82.20
45843;DHT22;31563;51.744;8.252;2022-09-12T07:06:36;23.70;74.00
45843;DHT22;31563;51.744;8.252;2022-09-12T07:09:07;24.10;71.90
45843;DHT22;31563;51.744;8.252;2022-09-12T07:11:37;25.00;72.50
45843;DHT22;31563;51.744;8.252;2022-09-12T07:14:07;25.40;69.50
45843;DHT22;31563;51.744;8.252;2022-09-12T07:16:38;25.00;62.30
45843;DHT22;31563;51.744;8.252;2022-09-12T07:19:06;24.90;61.70
45843;DHT22;31563;51.744;8.252;2022-09-12T07:26:37;26.30;80.90
45843;DHT22;31563;51.744;8.252;2022-09-12T07:31:56;26.40;50.60
45843;DHT22;31563;51.744;8.252;2022-09-12T07:34:25;26.40;78.00
45843;DHT22;31563;51.744;8.252;2022-09-12T07:36:53;26.10;69.00
45843;DHT22;31563;51.744;8.252;2022-09-12T07:39:22;26.60;49.90
45843;DHT22;31563;51.744;8.252;2022-09-12T07:41:50;26.80;66.80
45843;DHT22;31563;51.744;8.252;2022-09-12T07:44:18;27.00;49.10
45843;DHT22;31563;51.744;8.252;2022-09-12T07:46:47;27.30;48.80
45843;DHT22;31563;51.744;8.252;2022-09-12T07:49:17;27.40;48.10
45843;DHT22;31563;51.744;8.252;2022-09-12T07:51:46;27.80;60.70
45843;DHT22;31563;51.744;8.252;2022-09-12T07:54:14;27.90;46.20
45843;DHT22;31563;51.744;8.252;2022-09-12T07:56:43;27.40;46.40
45843;DHT22;31563;51.744;8.252;2022-09-12T07:59:11;27.50;69.10
45843;DHT22;31563;51.744;8.252;2022-09-12T08:04:25;28.30;71.10
45843;DHT22;31563;51.744;8.252;2022-09-12T08:06:53;28.10;48.70
45843;DHT22;31563;51.744;8.252;2022-09-12T08:09:22;27.70;73.80
45843;DHT22;31563;51.744;8.252;2022-09-12T08:11:50;27.80;66.30
45843;DHT22;31563;51.744;8.252;2022-09-12T08:14:18;27.90;46.40
45843;DHT22;31563;51.744;8.252;2022-09-12T08:16:47;27.90;46.70
45843;DHT22;31563;51.744;8.252;2022-09-12T08:19:15;28.40;67.50
45843;DHT22;31563;51.744;8.252;2022-09-12T08:21:45;28.10;65.60
45843;DHT22;31563;51.744;8.252;2022-09-12T08:24:13;28.10;46.20
45843;DHT22;31563;51.744;8.252;2022-09-12T08:26:42;27.80;64.80
45843;DHT22;31563;51.744;8.252;2022-09-12T08:29:10;28.20;69.00
45843;DHT22;31563;51.744;8.252;2022-09-12T08:34:08;27.80;45.50
45843;DHT22;31563;51.744;8.252;2022-09-12T08:36:36;27.20;62.90
45843;DHT22;31563;51.744;8.252;2022-09-12T08:39:06;27.40;61.50
45843;DHT22;31563;51.744;8.252;2022-09-12T08:41:37;26.70;68.20
45843;DHT22;31563;51.744;8.252;2022-09-12T08:44:27;27.70;48.30
45843;DHT22;31563;51.744;8.252;2022-09-12T08:47:15;27.60;64.60
45843;DHT22;31563;51.744;8.252;2022-09-12T08:49:52;27.20;46.80
45843;DHT22;31563;51.744;8.252;2022-09-12T08:52:26;27.30;61.40
45843;DHT22;31563;51.744;8.252;2022-09-12T08:54:57;26.90;61.00
45843;DHT22;31563;51.744;8.252;2022-09-12T08:59:54;27.80;67.20
45843;DHT22;31563;51.744;8.252;2022-09-12T09:02:46;28.00;47.10
45843;DHT22;31563;51.744;8.252;2022-09-12T09:05:24;27.90;66.50
45843;DHT22;31563;51.744;8.252;2022-09-12T09:08:29;28.30;47.00
45843;DHT22;31563;51.744;8.252;2022-09-12T09:11:12;29.30;55.90
45843;DHT22;31563;51.744;8.252;2022-09-12T09:13:57;29.30;53.50
45843;DHT22;31563;51.744;8.252;2022-09-12T09:16:49;29.10;56.90
45843;DHT22;31563;51.744;8.252;2022-09-12T09:19:22;28.70;58.50
45843;DHT22;31563;51.744;8.252;2022-09-12T09:21:57;29.30;60.80
45843;DHT22;31563;51.744;8.252;2022-09-12T09:24:29;30.10;60.80
45843;DHT22;31563;51.744;8.252;2022-09-12T09:27:04;29.10;62.50
45843;DHT22;31563;51.744;8.252;2022-09-12T09:29:54;29.80;61.90
45843;DHT22;31563;51.744;8.252;2022-09-12T09:32:24;29.50;44.40
45843;DHT22;31563;51.744;8.252;2022-09-12T09:34:53;29.10;60.00
45843;DHT22;31563;51.744;8.252;2022-09-12T09:37:28;29.60;44.40
45843;DHT22;31563;51.744;8.252;2022-09-12T09:40:04;29.80;44.30
45843;DHT22;31563;51.744;8.252;2022-09-12T09:42:40;30.10;54.10
45843;DHT22;31563;51.744;8.252;2022-09-12T09:45:13;30.00;55.70
45843;DHT22;31563;51.744;8.252;2022-09-12T09:47:44;30.20;58.30
45843;DHT22;31563;51.744;8.252;2022-09-12T09:50:14;29.60;56.00
45843;DHT22;31563;51.744;8.252;2022-09-12T09:52:43;30.10;43.90
45843;DHT22;31563;51.744;8.252;2022-09-12T09:55:16;30.60;43.20
45843;DHT22;31563;51.744;8.252;2022-09-12T09:57:46;30.50;43.00
45843;DHT22;31563;51.744;8.252;2022-09-12T10:00:24;30.60;53.10
45843;DHT22;31563;51.744;8.252;2022-09-12T10:02:59;30.70;51.50
45843;DHT22;31563;51.744;8.252;2022-09-12T10:05:29;31.10;49.10
45843;DHT22;31563;51.744;8.252;2022-09-12T10:07:57;31.20;41.40
45843;DHT22;31563;51.744;8.252;2022-09-12T10:10:26;31.60;41.30
45843;DHT22;31563;51.744;8.252;2022-09-12T10:13:07;32.10;46.40
45843;DHT22;31563;51.744;8.252;2022-09-12T10:15:36;31.90;40.70
45843;DHT22;31563;51.744;8.252;2022-09-12T10:18:05;32.30;40.30
45843;DHT22;31563;51.744;8.252;2022-09-12T10:20:36;32.50;39.90
45843;DHT22;31563;51.744;8.252;2022-09-12T10:23:22;32.70;39.50
45843;DHT22;31563;51.744;8.252;2022-09-12T10:25:57;32.60;38.80
45843;DHT22;31563;51.744;8.252;2022-09-12T10:28:32;32.50;39.10
45843;DHT22;31563;51.744;8.252;2022-09-12T10:31:03;32.40;38.70
45843;DHT22;31563;51.744;8.252;2022-09-12T10:33:39;32.30;38.80
45843;DHT22;31563;51.744;8.252;2022-09-12T10:36:09;32.00;38.80
45843;DHT22;31563;51.744;8.252;2022-09-12T10:38:37;32.00;42.30
45843;DHT22;31563;51.744;8.252;2022-09-12T10:41:07;32.30;42.00
45843;DHT22;31563;51.744;8.252;2022-09-12T10:43:38;32.40;39.70
45843;DHT22;31563;51.744;8.252;2022-09-12T10:46:22;33.00;37.80
45843;DHT22;31563;51.744;8.252;2022-09-12T10:49:11;33.20;37.80
45843;DHT22;31563;51.744;8.252;2022-09-12T10:51:39;33.90;37.80
45843;DHT22;31563;51.744;8.252;2022-09-12T10:54:09;34.50;37.00
45843;DHT22;31563;51.744;8.252;2022-09-12T10:56:42;34.50;36.10
45843;DHT22;31563;51.744;8.252;2022-09-12T10:59:24;34.60;36.30
45843;DHT22;31563;51.744;8.252;2022-09-12T11:02:00;34.20;35.80
45843;DHT22;31563;51.744;8.252;2022-09-12T11:04:40;34.20;36.60
45843;DHT22;31563;51.744;8.252;2022-09-12T11:07:23;34.60;36.80
45843;DHT22;31563;51.744;8.252;2022-09-12T11:09:59;35.00;35.80
45843;DHT22;31563;51.744;8.252;2022-09-12T11:12:35;35.20;35.20
45843;DHT22;31563;51.744;8.252;2022-09-12T11:15:22;35.70;35.20
45843;DHT22;31563;51.744;8.252;2022-09-12T11:17:58;36.20;34.20
45843;DHT22;31563;51.744;8.252;2022-09-12T11:20:46;36.00;33.60
45843;DHT22;31563;51.744;8.252;2022-09-12T11:23:38;36.70;34.10
45843;DHT22;31563;51.744;8.252;2022-09-12T11:26:20;37.40;33.20
45843;DHT22;31563;51.744;8.252;2022-09-12T11:28:59;37.70;32.40
45843;DHT22;31563;51.744;8.252;2022-09-12T11:31:45;37.80;31.80
45843;DHT22;31563;51.744;8.252;2022-09-12T11:34:23;37.30;31.90
45843;DHT22;31563;51.744;8.252;2022-09-12T11:37:03;37.70;32.00
45843;DHT22;31563;51.744;8.252;2022-09-12T11:39:39;38.30;31.70
45843;DHT22;31563;51.744;8.252;2022-09-12T11:42:15;38.70;30.70
45843;DHT22;31563;51.744;8.252;2022-09-12T11:44:50;39.00;30.90
45843;DHT22;31563;51.744;8.252;2022-09-12T11:47:22;39.40;30.60
45843;DHT22;31563;51.744;8.252;2022-09-12T11:49:53;39.80;30.20
45843;DHT22;31563;51.744;8.252;2022-09-12T11:52:22;40.20;29.50
45843;DHT22;31563;51.744;8.252;2022-09-12T11:54:56;40.50;29.20
45843;DHT22;31563;51.744;8.252;2022-09-12T11:57:30;40.60;29.20
45843;DHT22;31563;51.744;8.252;2022-09-12T12:00:03;40.80;29.10
45843;DHT22;31563;51.744;8.252;2022-09-12T12:02:38;41.10;29.20
45843;DHT22;31563;51.744;8.252;2022-09-12T12:05:18;41.40;28.50
45843;DHT22;31563;51.744;8.252;2022-09-12T12:07:52;41.30;28.30
45843;DHT22;31563;51.744;8.252;2022-09-12T12:10:24;41.10;28.60
45843;DHT22;31563;51.744;8.252;2022-09-12T12:12:54;40.90;28.90
45843;DHT22;31563;51.744;8.252;2022-09-12T12:15:23;40.90;28.50
45843;DHT22;31563;51.744;8.252;2022-09-12T12:18:05;40.90;28.90
45843;DHT22;31563;51.744;8.252;2022-09-12T12:20:34;41.00;28.40
45843;DHT22;31563;51.744;8.252;2022-09-12T12:23:02;41.00;28.50
45843;DHT22;31563;51.744;8.252;2022-09-12T12:25:40;41.10;28.40
45843;DHT22;31563;51.744;8.252;2022-09-12T12:31:21;40.90;27.90
45843;DHT22;31563;51.744;8.252;2022-09-12T12:34:25;41.20;28.20
45843;DHT22;31563;51.744;8.252;2022-09-12T12:36:54;41.30;27.60
45843;DHT22;31563;51.744;8.252;2022-09-12T12:42:08;41.10;27.10
45843;DHT22;31563;51.744;8.252;2022-09-12T12:44:49;40.90;27.00
45843;DHT22;31563;51.744;8.252;2022-09-12T12:47:20;40.90;27.30
45843;DHT22;31563;51.744;8.252;2022-09-12T12:49:52;41.00;27.00
45843;DHT22;31563;51.744;8.252;2022-09-12T12:52:23;40.80;27.30
45843;DHT22;31563;51.744;8.252;2022-09-12T12:54:56;41.00;27.80
45843;DHT22;31563;51.744;8.252;2022-09-12T12:57:36;41.00;27.60
45843;DHT22;31563;51.744;8.252;2022-09-12T13:00:24;40.90;27.60
45843;DHT22;31563;51.744;8.252;2022-09-12T13:02:56;40.90;27.00
45843;DHT22;31563;51.744;8.252;2022-09-12T13:05:29;40.70;27.00
45843;DHT22;31563;51.744;8.252;2022-09-12T13:08:02;40.60;26.90
45843;DHT22;31563;51.744;8.252;2022-09-12T13:10:33;40.60;26.80
45843;DHT22;31563;51.744;8.252;2022-09-12T13:13:04;40.60;27.10
45843;DHT22;31563;51.744;8.252;2022-09-12T13:15:47;40.60;26.90
45843;DHT22;31563;51.744;8.252;2022-09-12T13:18:23;40.60;27.50
45843;DHT22;31563;51.744;8.252;2022-09-12T13:21:00;40.50;27.30
45843;DHT22;31563;51.744;8.252;2022-09-12T13:23:33;40.50;27.30
45843;DHT22;31563;51.744;8.252;2022-09-12T13:26:01;40.40;27.40
45843;DHT22;31563;51.744;8.252;2022-09-12T13:28:30;40.30;27.50
45843;DHT22;31563;51.744;8.252;2022-09-12T13:31:01;39.80;27.00
45843;DHT22;31563;51.744;8.252;2022-09-12T13:33:39;39.50;27.40
45843;DHT22;31563;51.744;8.252;2022-09-12T13:36:35;39.60;27.50
45843;DHT22;31563;51.744;8.252;2022-09-12T13:39:14;39.70;28.00
45843;DHT22;31563;51.744;8.252;2022-09-12T13:45:02;39.50;27.60
45843;DHT22;31563;51.744;8.252;2022-09-12T13:47:35;39.60;28.30
45843;DHT22;31563;51.744;8.252;2022-09-12T13:50:07;39.70;28.00
45843;DHT22;31563;51.744;8.252;2022-09-12T13:52:45;40.10;28.10
45843;DHT22;31563;51.744;8.252;2022-09-12T13:55:24;40.60;28.50
45843;DHT22;31563;51.744;8.252;2022-09-12T13:57:59;41.00;28.20
45843;DHT22;31563;51.744;8.252;2022-09-12T14:00:28;41.40;27.80
45843;DHT22;31563;51.744;8.252;2022-09-12T14:02:58;41.40;27.10
45843;DHT22;31563;51.744;8.252;2022-09-12T14:05:55;41.30;27.60
45843;DHT22;31563;51.744;8.252;2022-09-12T14:08:25;41.40;27.00
45843;DHT22;31563;51.744;8.252;2022-09-12T14:10:53;41.40;27.10
45843;DHT22;31563;51.744;8.252;2022-09-12T14:13:22;41.60;26.90
45843;DHT22;31563;51.744;8.252;2022-09-12T14:15:53;41.70;26.60
45843;DHT22;31563;51.744;8.252;2022-09-12T14:18:24;41.80;26.80
45843;DHT22;31563;51.744;8.252;2022-09-12T14:20:53;41.90;26.80
45843;DHT22;31563;51.744;8.252;2022-09-12T14:23:27;41.90;26.90
45843;DHT22;31563;51.744;8.252;2022-09-12T14:25:57;42.00;26.60
45843;DHT22;31563;51.744;8.252;2022-09-12T14:28:27;42.00;26.50
45843;DHT22;31563;51.744;8.252;2022-09-12T14:31:01;41.90;26.50
45843;DHT22;31563;51.744;8.252;2022-09-12T14:33:33;41.70;26.60
45843;DHT22;31563;51.744;8.252;2022-09-12T14:36:16;41.10;26.90
45843;DHT22;31563;51.744;8.252;2022-09-12T14:38:49;40.90;27.30
45843;DHT22;31563;51.744;8.252;2022-09-12T14:41:22;41.10;27.80
45843;DHT22;31563;51.744;8.252;2022-09-12T14:43:53;41.50;27.80
45843;DHT22;31563;51.744;8.252;2022-09-12T14:46:25;42.00;27.70
45843;DHT22;31563;51.744;8.252;2022-09-12T14:48:57;42.30;27.50
45843;DHT22;31563;51.744;8.252;2022-09-12T14:51:30;42.30;27.50
45843;DHT22;31563;51.744;8.252;2022-09-12T14:54:02;42.60;27.80
45843;DHT22;31563;51.744;8.252;2022-09-12T14:56:38;43.10;27.90
45843;DHT22;31563;51.744;8.252;2022-09-12T14:59:25;43.40;27.40
45843;DHT22;31563;51.744;8.252;2022-09-12T15:04:40;43.70;27.50
45843;DHT22;31563;51.744;8.252;2022-09-12T15:07:14;43.80;27.50
45843;DHT22;31563;51.744;8.252;2022-09-12T15:09:44;43.90;27.40
45843;DHT22;31563;51.744;8.252;2022-09-12T15:12:13;43.80;27.30
45843;DHT22;31563;51.744;8.252;2022-09-12T15:14:40;43.80;27.50
45843;DHT22;31563;51.744;8.252;2022-09-12T15:17:09;43.70;27.50
45843;DHT22;31563;51.744;8.252;2022-09-12T15:19:37;43.20;26.10
45843;DHT22;31563;51.744;8.252;2022-09-12T15:22:05;42.10;25.80
45843;DHT22;31563;51.744;8.252;2022-09-12T15:24:33;41.00;26.20
45843;DHT22;31563;51.744;8.252;2022-09-12T15:27:07;40.30;26.40
45843;DHT22;31563;51.744;8.252;2022-09-12T15:29:35;39.90;27.70
45843;DHT22;31563;51.744;8.252;2022-09-12T15:32:04;39.80;27.70
45843;DHT22;31563;51.744;8.252;2022-09-12T15:34:33;39.90;27.90
45843;DHT22;31563;51.744;8.252;2022-09-12T15:37:01;40.00;27.90
45843;DHT22;31563;51.744;8.252;2022-09-12T15:39:29;40.00;28.50
45843;DHT22;31563;51.744;8.252;2022-09-12T15:41:57;40.00;28.10
45843;DHT22;31563;51.744;8.252;2022-09-12T15:44:27;40.00;28.20
45843;DHT22;31563;51.744;8.252;2022-09-12T15:46:55;40.10;28.40
45843;DHT22;31563;51.744;8.252;2022-09-12T15:49:23;40.10;28.40
45843;DHT22;31563;51.744;8.252;2022-09-12T15:51:51;40.30;28.50
45843;DHT22;31563;51.744;8.252;2022-09-12T15:54:19;40.30;28.40
45843;DHT22;31563;51.744;8.252;2022-09-12T15:56:48;40.30;28.40
45843;DHT22;31563;51.744;8.252;2022-09-12T15:59:16;40.00;27.80
45843;DHT22;31563;51.744;8.252;2022-09-12T16:01:45;39.50;27.90
45843;DHT22;31563;51.744;8.252;2022-09-12T16:04:19;39.00;28.00
45843;DHT22;31563;51.744;8.252;2022-09-12T16:06:49;38.70;27.90
45843;DHT22;31563;51.744;8.252;2022-09-12T16:09:18;38.40;28.30
45843;DHT22;31563;51.744;8.252;2022-09-12T16:11:46;38.20;28.50
45843;DHT22;31563;51.744;8.252;2022-09-12T16:14:14;38.00;28.70
45843;DHT22;31563;51.744;8.252;2022-09-12T16:16:43;37.70;28.90
45843;DHT22;31563;51.744;8.252;2022-09-12T16:19:12;37.50;28.90
45843;DHT22;31563;51.744;8.252;2022-09-12T16:21:41;37.20;28.90
45843;DHT22;31563;51.744;8.252;2022-09-12T16:24:09;36.90;28.80
45843;DHT22;31563;51.744;8.252;2022-09-12T16:26:37;36.60;29.00
45843;DHT22;31563;51.744;8.252;2022-09-12T16:29:05;36.30;29.10
45843;DHT22;31563;51.744;8.252;2022-09-12T16:31:33;36.10;29.70
45843;DHT22;31563;51.744;8.252;2022-09-12T16:34:04;35.80;29.60
45843;DHT22;31563;51.744;8.252;2022-09-12T16:36:33;35.60;30.00
45843;DHT22;31563;51.744;8.252;2022-09-12T16:39:02;35.40;30.70
45843;DHT22;31563;51.744;8.252;2022-09-12T16:41:31;35.10;30.50
45843;DHT22;31563;51.744;8.252;2022-09-12T16:43:59;35.00;30.90
45843;DHT22;31563;51.744;8.252;2022-09-12T16:46:27;35.00;31.50
45843;DHT22;31563;51.744;8.252;2022-09-12T16:48:57;35.00;31.70
45843;DHT22;31563;51.744;8.252;2022-09-12T16:51:26;35.00;31.80
45843;DHT22;31563;51.744;8.252;2022-09-12T16:53:56;35.00;31.80
45843;DHT22;31563;51.744;8.252;2022-09-12T16:56:24;35.00;31.90
45843;DHT22;31563;51.744;8.252;2022-09-12T16:58:53;35.00;32.00
45843;DHT22;31563;51.744;8.252;2022-09-12T17:01:23;35.00;32.10
45843;DHT22;31563;51.744;8.252;2022-09-12T17:03:53;35.00;32.20
45843;DHT22;31563;51.744;8.252;2022-09-12T17:06:21;35.00;32.20
45843;DHT22;31563;51.744;8.252;2022-09-12T17:08:52;35.00;32.10
45843;DHT22;31563;51.744;8.252;2022-09-12T17:11:24;34.90;32.30
45843;DHT22;31563;51.744;8.252;2022-09-12T17:13:54;34.80;32.30
45843;DHT22;31563;51.744;8.252;2022-09-12T17:16:33;34.80;32.50
45843;DHT22;31563;51.744;8.252;2022-09-12T17:19:01;34.70;32.50
45843;DHT22;31563;51.744;8.252;2022-09-12T17:21:30;34.70;32.60
45843;DHT22;31563;51.744;8.252;2022-09-12T17:23:58;34.60;32.70
45843;DHT22;31563;51.744;8.252;2022-09-12T17:26:28;34.50;32.80
45843;DHT22;31563;51.744;8.252;2022-09-12T17:28:56;34.50;33.10
45843;DHT22;31563;51.744;8.252;2022-09-12T17:31:24;34.40;33.20
45843;DHT22;31563;51.744;8.252;2022-09-12T17:33:55;34.30;33.40
45843;DHT22;31563;51.744;8.252;2022-09-12T17:36:24;34.30;34.00
45843;DHT22;31563;51.744;8.252;2022-09-12T17:38:52;34.20;33.70
45843;DHT22;31563;51.744;8.252;2022-09-12T17:41:22;34.10;33.80
45843;DHT22;31563;51.744;8.252;2022-09-12T17:43:54;34.00;34.00
45843;DHT22;31563;51.744;8.252;2022-09-12T17:46:25;33.90;34.10
45843;DHT22;31563;51.744;8.252;2022-09-12T17:48:54;33.70;34.30
45843;DHT22;31563;51.744;8.252;2022-09-12T17:51:24;33.60;34.30
45843;DHT22;31563;51.744;8.252;2022-09-12T17:53:55;33.60;34.60
45843;DHT22;31563;51.744;8.252;2022-09-12T17:56:27;33.50;34.80
45843;DHT22;31563;51.744;8.252;2022-09-12T17:58:58;33.50;34.80
45843;DHT22;31563;51.744;8.252;2022-09-12T18:01:28;33.40;34.80